sensor_id;sensor_type;location;lat;lon;timestamp;pressure;altitude;pressure_sealevel;temperature;humidity
20013;BME280;10167;42.852;23.042;2023-04-06T00:01:36;94668.13;;;1.49;100.00
20013;BME280;10167;42.852;23.042;2023-04-06T00:04:05;94662.91;;;1.49;100.00
20013;BME280;10167;42.852;23.042;2023-04-06T00:06:36;94665.31;;;1.44;100.00
20013;BME280;10167;42.852;23.042;2023-04-06T00:09:06;94667.81;;;1.59;100.00
20013;BME280;10167;42.852;23.042;2023-04-06T00:11:35;94658.59;;;1.56;100.00
20013;BME280;10167;42.852;23.042;2023-04-06T00:14:04;94654.59;;;1.60;100.00
20013;BME280;10167;42.852;23.042;2023-04-06T00:16:33;94664.19;;;1.53;100.00
20013;BME280;10167;42.852;23.042;2023-04-06T00:19:03;94658.00;;;1.61;100.00
20013;BME280;10167;42.852;23.042;2023-04-06T00:21:32;94646.41;;;1.63;100.00
20013;BME280;10167;42.852;23.042;2023-04-06T00:24:03;94642.97;;;1.63;100.00
20013;BME280;10167;42.852;23.042;2023-04-06T00:26:32;94646.88;;;1.73;100.00
20013;BME280;10167;42.852;23.042;2023-04-06T00:29:02;94641.38;;;1.62;100.00
20013;BME280;10167;42.852;23.042;2023-04-06T00:31:31;94632.78;;;1.68;100.00
20013;BME280;10167;42.852;23.042;2023-04-06T00:34:00;94632.97;;;1.66;100.00
20013;BME280;10167;42.852;23.042;2023-04-06T00:36:29;94632.16;;;1.66;100.00
20013;BME280;10167;42.852;23.042;2023-04-06T00:38:58;94630.94;;;1.62;100.00
20013;BME280;10167;42.852;23.042;2023-04-06T00:41:29;94628.69;;;1.59;100.00
20013;BME280;10167;42.852;23.042;2023-04-06T00:43:59;94628.31;;;1.62;100.00
20013;BME280;10167;42.852;23.042;2023-04-06T00:46:28;94624.28;;;1.59;100.00
20013;BME280;10167;42.852;23.042;2023-04-06T00:48:57;94621.16;;;1.70;100.00
20013;BME280;10167;42.852;23.042;2023-04-06T00:51:27;94613.72;;;1.67;100.00
20013;BME280;10167;42.852;23.042;2023-04-06T00:53:56;94610.66;;;1.64;100.00
20013;BME280;10167;42.852;23.042;2023-04-06T00:56:25;94611.22;;;1.59;100.00
20013;BME280;10167;42.852;23.042;2023-04-06T00:58:56;94606.81;;;1.60;100.00
20013;BME280;10167;42.852;23.042;2023-04-06T01:01:26;94605.91;;;1.46;100.00
20013;BME280;10167;42.852;23.042;2023-04-06T01:04:01;94612.00;;;1.53;100.00
20013;BME280;10167;42.852;23.042;2023-04-06T01:06:38;94610.22;;;1.60;100.00
20013;BME280;10167;42.852;23.042;2023-04-06T01:09:07;94612.91;;;1.67;100.00
20013;BME280;10167;42.852;23.042;2023-04-06T01:11:37;94613.25;;;1.57;100.00
20013;BME280;10167;42.852;23.042;2023-04-06T01:14:11;94597.94;;;1.54;100.00
20013;BME280;10167;42.852;23.042;2023-04-06T01:16:53;94604.72;;;1.49;100.00
20013;BME280;10167;42.852;23.042;2023-04-06T01:19:28;94604.13;;;1.47;100.00
20013;BME280;10167;42.852;23.042;2023-04-06T01:21:58;94595.28;;;1.48;100.00
20013;BME280;10167;42.852;23.042;2023-04-06T01:24:31;94587.84;;;1.44;100.00
20013;BME280;10167;42.852;23.042;2023-04-06T01:27:04;94592.88;;;1.46;100.00
20013;BME280;10167;42.852;23.042;2023-04-06T01:29:59;94594.97;;;1.36;100.00
20013;BME280;10167;42.852;23.042;2023-04-06T01:32:41;94589.25;;;1.26;100.00
20013;BME280;10167;42.852;23.042;2023-04-06T01:35:13;94586.16;;;1.37;100.00
20013;BME280;10167;42.852;23.042;2023-04-06T01:37:52;94586.44;;;1.21;100.00
20013;BME280;10167;42.852;23.042;2023-04-06T01:40:29;94576.72;;;1.36;100.00
20013;BME280;10167;42.852;23.042;2023-04-06T01:42:59;94581.03;;;1.22;100.00
20013;BME280;10167;42.852;23.042;2023-04-06T01:45:34;94579.94;;;1.38;100.00
20013;BME280;10167;42.852;23.042;2023-04-06T01:48:13;94579.72;;;1.33;100.00
20013;BME280;10167;42.852;23.042;2023-04-06T01:50:43;94576.34;;;1.39;100.00
20013;BME280;10167;42.852;23.042;2023-04-06T01:53:17;94575.84;;;1.29;100.00
20013;BME280;10167;42.852;23.042;2023-04-06T01:55:48;94570.72;;;1.35;100.00
20013;BME280;10167;42.852;23.042;2023-04-06T01:58:32;94576.53;;;1.37;100.00
20013;BME280;10167;42.852;23.042;2023-04-06T02:01:02;94572.81;;;1.47;100.00
20013;BME280;10167;42.852;23.042;2023-04-06T02:03:42;94571.75;;;1.41;100.00
20013;BME280;10167;42.852;23.042;2023-04-06T02:06:12;94567.44;;;1.55;100.00
20013;BME280;10167;42.852;23.042;2023-04-06T02:08:41;94569.88;;;1.56;100.00
20013;BME280;10167;42.852;23.042;2023-04-06T02:11:12;94574.84;;;1.51;100.00
20013;BME280;10167;42.852;23.042;2023-04-06T02:13:48;94572.00;;;1.46;100.00
20013;BME280;10167;42.852;23.042;2023-04-06T02:16:38;94565.91;;;1.39;100.00
20013;BME280;10167;42.852;23.042;2023-04-06T02:19:07;94569.25;;;1.54;100.00
20013;BME280;10167;42.852;23.042;2023-04-06T02:21:37;94567.47;;;1.61;100.00
20013;BME280;10167;42.852;23.042;2023-04-06T02:24:06;94574.31;;;1.62;100.00
20013;BME280;10167;42.852;23.042;2023-04-06T02:26:37;94574.69;;;1.59;100.00
20013;BME280;10167;42.852;23.042;2023-04-06T02:29:06;94575.81;;;1.50;100.00
20013;BME280;10167;42.852;23.042;2023-04-06T02:31:35;94568.88;;;1.57;100.00
20013;BME280;10167;42.852;23.042;2023-04-06T02:34:06;94570.88;;;1.55;100.00
20013;BME280;10167;42.852;23.042;2023-04-06T02:36:42;94574.22;;;1.49;100.00
20013;BME280;10167;42.852;23.042;2023-04-06T02:39:11;94570.25;;;1.53;100.00
20013;BME280;10167;42.852;23.042;2023-04-06T02:41:42;94575.41;;;1.47;100.00
20013;BME280;10167;42.852;23.042;2023-04-06T02:44:15;94576.72;;;1.57;100.00
20013;BME280;10167;42.852;23.042;2023-04-06T02:46:45;94577.13;;;1.61;100.00
20013;BME280;10167;42.852;23.042;2023-04-06T02:49:14;94578.94;;;1.39;100.00
20013;BME280;10167;42.852;23.042;2023-04-06T02:51:48;94583.09;;;1.55;100.00
20013;BME280;10167;42.852;23.042;2023-04-06T02:54:22;94584.53;;;1.57;100.00
20013;BME280;10167;42.852;23.042;2023-04-06T02:56:53;94581.66;;;1.52;100.00
20013;BME280;10167;42.852;23.042;2023-04-06T02:59:31;94584.28;;;1.52;100.00
20013;BME280;10167;42.852;23.042;2023-04-06T03:02:10;94578.81;;;1.47;100.00
20013;BME280;10167;42.852;23.042;2023-04-06T03:04:40;94574.66;;;1.53;100.00
20013;BME280;10167;42.852;23.042;2023-04-06T03:07:19;94583.50;;;1.58;100.00
20013;BME280;10167;42.852;23.042;2023-04-06T03:09:49;94585.59;;;1.69;100.00
20013;BME280;10167;42.852;23.042;2023-04-06T03:12:20;94590.84;;;1.48;100.00
20013;BME280;10167;42.852;23.042;2023-04-06T03:15:27;94594.13;;;1.29;100.00
20013;BME280;10167;42.852;23.042;2023-04-06T03:18:10;94578.59;;;1.42;100.00
20013;BME280;10167;42.852;23.042;2023-04-06T03:20:43;94580.34;;;1.35;100.00
20013;BME280;10167;42.852;23.042;2023-04-06T03:23:14;94575.31;;;1.33;100.00
20013;BME280;10167;42.852;23.042;2023-04-06T03:25:45;94579.44;;;1.28;100.00
20013;BME280;10167;42.852;23.042;2023-04-06T03:28:19;94584.34;;;1.37;100.00
20013;BME280;10167;42.852;23.042;2023-04-06T03:30:53;94578.31;;;1.37;100.00
20013;BME280;10167;42.852;23.042;2023-04-06T03:33:41;94583.81;;;1.42;100.00
20013;BME280;10167;42.852;23.042;2023-04-06T03:36:17;94579.81;;;1.46;100.00
20013;BME280;10167;42.852;23.042;2023-04-06T03:38:46;94577.59;;;1.43;100.00
20013;BME280;10167;42.852;23.042;2023-04-06T03:41:16;94578.63;;;1.49;100.00
20013;BME280;10167;42.852;23.042;2023-04-06T03:43:58;94580.00;;;1.44;100.00
20013;BME280;10167;42.852;23.042;2023-04-06T03:46:27;94572.13;;;1.38;100.00
20013;BME280;10167;42.852;23.042;2023-04-06T03:48:58;94572.91;;;1.38;100.00
20013;BME280;10167;42.852;23.042;2023-04-06T03:51:29;94573.38;;;1.42;100.00
20013;BME280;10167;42.852;23.042;2023-04-06T03:53:58;94567.28;;;1.35;100.00
20013;BME280;10167;42.852;23.042;2023-04-06T03:56:27;94565.25;;;1.30;100.00
20013;BME280;10167;42.852;23.042;2023-04-06T03:58:58;94569.31;;;1.39;100.00
20013;BME280;10167;42.852;23.042;2023-04-06T04:01:27;94567.16;;;1.43;100.00
20013;BME280;10167;42.852;23.042;2023-04-06T04:03:57;94561.94;;;1.43;100.00
20013;BME280;10167;42.852;23.042;2023-04-06T04:06:26;94560.47;;;1.34;100.00
20013;BME280;10167;42.852;23.042;2023-04-06T04:08:55;94559.94;;;1.45;100.00
20013;BME280;10167;42.852;23.042;2023-04-06T04:11:25;94559.75;;;1.25;100.00
20013;BME280;10167;42.852;23.042;2023-04-06T04:13:59;94556.97;;;1.27;100.00
20013;BME280;10167;42.852;23.042;2023-04-06T04:16:28;94569.66;;;1.30;100.00
20013;BME280;10167;42.852;23.042;2023-04-06T04:18:58;94557.59;;;1.29;100.00
20013;BME280;10167;42.852;23.042;2023-04-06T04:21:29;94563.88;;;1.34;100.00
20013;BME280;10167;42.852;23.042;2023-04-06T04:24:04;94562.38;;;1.47;100.00
20013;BME280;10167;42.852;23.042;2023-04-06T04:26:36;94566.16;;;1.44;100.00
20013;BME280;10167;42.852;23.042;2023-04-06T04:29:07;94565.97;;;1.45;100.00
20013;BME280;10167;42.852;23.042;2023-04-06T04:31:38;94565.56;;;1.49;100.00
20013;BME280;10167;42.852;23.042;2023-04-06T04:34:15;94568.06;;;1.57;100.00
20013;BME280;10167;42.852;23.042;2023-04-06T04:36:44;94569.88;;;1.56;100.00
20013;BME280;10167;42.852;23.042;2023-04-06T04:39:21;94572.69;;;1.61;100.00
20013;BME280;10167;42.852;23.042;2023-04-06T04:41:57;94569.75;;;1.71;100.00
20013;BME280;10167;42.852;23.042;2023-04-06T04:44:31;94567.66;;;1.60;100.00
20013;BME280;10167;42.852;23.042;2023-04-06T04:47:01;94564.78;;;1.48;100.00
20013;BME280;10167;42.852;23.042;2023-04-06T04:49:40;94565.06;;;1.60;100.00
20013;BME280;10167;42.852;23.042;2023-04-06T04:52:10;94570.47;;;1.58;100.00
20013;BME280;10167;42.852;23.042;2023-04-06T04:54:49;94560.53;;;1.68;100.00
20013;BME280;10167;42.852;23.042;2023-04-06T04:57:24;94569.19;;;1.75;100.00
20013;BME280;10167;42.852;23.042;2023-04-06T04:59:55;94566.50;;;1.62;100.00
20013;BME280;10167;42.852;23.042;2023-04-06T05:02:24;94572.81;;;1.74;100.00
20013;BME280;10167;42.852;23.042;2023-04-06T05:05:17;94569.00;;;1.77;100.00
20013;BME280;10167;42.852;23.042;2023-04-06T05:07:46;94568.41;;;1.75;100.00
20013;BME280;10167;42.852;23.042;2023-04-06T05:10:26;94565.59;;;1.76;100.00
20013;BME280;10167;42.852;23.042;2023-04-06T05:12:59;94567.97;;;1.71;100.00
20013;BME280;10167;42.852;23.042;2023-04-06T05:15:30;94562.63;;;1.79;100.00
20013;BME280;10167;42.852;23.042;2023-04-06T05:18:06;94563.13;;;1.68;100.00
20013;BME280;10167;42.852;23.042;2023-04-06T05:20:37;94562.91;;;1.70;100.00
20013;BME280;10167;42.852;23.042;2023-04-06T05:23:07;94559.03;;;1.59;100.00
20013;BME280;10167;42.852;23.042;2023-04-06T05:25:36;94569.75;;;1.71;100.00
20013;BME280;10167;42.852;23.042;2023-04-06T05:28:14;94562.63;;;1.58;100.00
20013;BME280;10167;42.852;23.042;2023-04-06T05:30:45;94563.53;;;1.72;100.00
20013;BME280;10167;42.852;23.042;2023-04-06T05:33:16;94561.91;;;1.64;100.00
20013;BME280;10167;42.852;23.042;2023-04-06T05:36:06;94551.34;;;1.51;100.00
20013;BME280;10167;42.852;23.042;2023-04-06T05:38:39;94553.81;;;1.59;100.00
20013;BME280;10167;42.852;23.042;2023-04-06T05:41:35;94555.44;;;1.60;100.00
20013;BME280;10167;42.852;23.042;2023-04-06T05:44:06;94559.00;;;1.53;100.00
20013;BME280;10167;42.852;23.042;2023-04-06T05:46:37;94553.00;;;1.59;100.00
20013;BME280;10167;42.852;23.042;2023-04-06T05:49:11;94555.06;;;1.63;100.00
20013;BME280;10167;42.852;23.042;2023-04-06T05:51:40;94550.84;;;1.62;100.00
20013;BME280;10167;42.852;23.042;2023-04-06T05:54:09;94538.03;;;1.67;100.00
20013;BME280;10167;42.852;23.042;2023-04-06T05:56:39;94544.94;;;1.81;100.00
20013;BME280;10167;42.852;23.042;2023-04-06T05:59:11;94545.34;;;1.78;100.00
20013;BME280;10167;42.852;23.042;2023-04-06T06:01:42;94549.78;;;1.85;100.00
20013;BME280;10167;42.852;23.042;2023-04-06T06:04:13;94549.16;;;1.82;100.00
20013;BME280;10167;42.852;23.042;2023-04-06T06:06:43;94559.25;;;1.92;100.00
20013;BME280;10167;42.852;23.042;2023-04-06T06:09:36;94557.56;;;1.78;100.00
20013;BME280;10167;42.852;23.042;2023-04-06T06:12:29;94551.56;;;1.77;100.00
20013;BME280;10167;42.852;23.042;2023-04-06T06:15:00;94545.09;;;1.73;100.00
20013;BME280;10167;42.852;23.042;2023-04-06T06:17:34;94547.53;;;1.81;100.00
20013;BME280;10167;42.852;23.042;2023-04-06T06:20:07;94547.84;;;1.65;100.00
20013;BME280;10167;42.852;23.042;2023-04-06T06:22:36;94552.63;;;1.90;100.00
20013;BME280;10167;42.852;23.042;2023-04-06T06:25:11;94543.75;;;1.84;100.00
20013;BME280;10167;42.852;23.042;2023-04-06T06:27:41;94547.41;;;1.90;100.00
20013;BME280;10167;42.852;23.042;2023-04-06T06:30:11;94545.66;;;2.03;100.00
20013;BME280;10167;42.852;23.042;2023-04-06T06:32:43;94550.50;;;2.06;100.00
20013;BME280;10167;42.852;23.042;2023-04-06T06:35:12;94547.28;;;2.04;100.00
20013;BME280;10167;42.852;23.042;2023-04-06T06:37:41;94547.94;;;2.13;100.00
20013;BME280;10167;42.852;23.042;2023-04-06T06:40:13;94548.13;;;2.11;100.00
20013;BME280;10167;42.852;23.042;2023-04-06T06:42:47;94548.31;;;2.10;100.00
20013;BME280;10167;42.852;23.042;2023-04-06T06:45:31;94549.56;;;2.14;100.00
20013;BME280;10167;42.852;23.042;2023-04-06T06:48:02;94544.91;;;2.09;100.00
20013;BME280;10167;42.852;23.042;2023-04-06T06:50:31;94552.56;;;2.17;100.00
20013;BME280;10167;42.852;23.042;2023-04-06T06:53:01;94550.16;;;2.16;100.00
20013;BME280;10167;42.852;23.042;2023-04-06T06:55:30;94541.28;;;2.10;100.00
20013;BME280;10167;42.852;23.042;2023-04-06T06:57:59;94548.28;;;2.03;100.00
20013;BME280;10167;42.852;23.042;2023-04-06T07:00:28;94556.91;;;2.04;100.00
20013;BME280;10167;42.852;23.042;2023-04-06T07:02:58;94553.56;;;2.10;100.00
20013;BME280;10167;42.852;23.042;2023-04-06T07:05:29;94559.38;;;2.12;100.00
20013;BME280;10167;42.852;23.042;2023-04-06T07:07:58;94557.97;;;2.09;100.00
20013;BME280;10167;42.852;23.042;2023-04-06T07:10:28;94556.88;;;1.97;100.00
20013;BME280;10167;42.852;23.042;2023-04-06T07:12:57;94565.16;;;2.01;100.00
20013;BME280;10167;42.852;23.042;2023-04-06T07:15:27;94562.47;;;1.88;100.00
20013;BME280;10167;42.852;23.042;2023-04-06T07:17:57;94568.38;;;2.03;100.00
20013;BME280;10167;42.852;23.042;2023-04-06T07:20:28;94561.38;;;2.10;100.00
20013;BME280;10167;42.852;23.042;2023-04-06T07:22:57;94565.00;;;2.15;100.00
20013;BME280;10167;42.852;23.042;2023-04-06T07:25:27;94566.00;;;2.14;100.00
20013;BME280;10167;42.852;23.042;2023-04-06T07:27:56;94563.22;;;2.16;100.00
20013;BME280;10167;42.852;23.042;2023-04-06T07:30:26;94565.72;;;2.31;100.00
20013;BME280;10167;42.852;23.042;2023-04-06T07:32:59;94556.06;;;2.31;100.00
20013;BME280;10167;42.852;23.042;2023-04-06T07:35:30;94563.72;;;2.33;100.00
20013;BME280;10167;42.852;23.042;2023-04-06T07:38:00;94565.13;;;2.35;100.00
20013;BME280;10167;42.852;23.042;2023-04-06T07:40:30;94564.78;;;2.51;100.00
20013;BME280;10167;42.852;23.042;2023-04-06T07:43:00;94555.31;;;2.44;100.00
20013;BME280;10167;42.852;23.042;2023-04-06T07:45:30;94558.81;;;2.64;100.00
20013;BME280;10167;42.852;23.042;2023-04-06T07:48:01;94559.63;;;2.65;100.00
20013;BME280;10167;42.852;23.042;2023-04-06T07:50:33;94555.94;;;2.52;100.00
20013;BME280;10167;42.852;23.042;2023-04-06T07:53:03;94561.66;;;2.69;100.00
20013;BME280;10167;42.852;23.042;2023-04-06T07:55:32;94561.47;;;2.71;100.00
20013;BME280;10167;42.852;23.042;2023-04-06T07:58:01;94564.66;;;2.73;100.00
20013;BME280;10167;42.852;23.042;2023-04-06T08:00:33;94564.28;;;2.82;100.00
20013;BME280;10167;42.852;23.042;2023-04-06T08:03:02;94561.47;;;2.77;100.00
20013;BME280;10167;42.852;23.042;2023-04-06T08:05:36;94560.28;;;2.86;100.00
20013;BME280;10167;42.852;23.042;2023-04-06T08:08:05;94569.16;;;2.92;100.00
20013;BME280;10167;42.852;23.042;2023-04-06T08:10:34;94563.94;;;3.05;100.00
20013;BME280;10167;42.852;23.042;2023-04-06T08:13:03;94560.47;;;2.85;100.00
20013;BME280;10167;42.852;23.042;2023-04-06T08:15:32;94559.09;;;2.96;100.00
20013;BME280;10167;42.852;23.042;2023-04-06T08:18:01;94564.13;;;2.97;100.00
20013;BME280;10167;42.852;23.042;2023-04-06T08:20:30;94559.31;;;3.01;100.00
20013;BME280;10167;42.852;23.042;2023-04-06T08:23:00;94569.19;;;3.18;100.00
20013;BME280;10167;42.852;23.042;2023-04-06T08:25:29;94568.00;;;3.14;100.00
20013;BME280;10167;42.852;23.042;2023-04-06T08:27:58;94570.59;;;3.08;100.00
20013;BME280;10167;42.852;23.042;2023-04-06T08:30:28;94571.00;;;3.05;100.00
20013;BME280;10167;42.852;23.042;2023-04-06T08:32:57;94569.81;;;3.14;100.00
20013;BME280;10167;42.852;23.042;2023-04-06T08:35:27;94571.00;;;3.05;100.00
20013;BME280;10167;42.852;23.042;2023-04-06T08:37:56;94570.19;;;3.17;100.00
20013;BME280;10167;42.852;23.042;2023-04-06T08:40:28;94573.59;;;2.98;100.00
20013;BME280;10167;42.852;23.042;2023-04-06T08:42:59;94577.88;;;3.25;100.00
20013;BME280;10167;42.852;23.042;2023-04-06T08:45:31;94583.50;;;3.16;100.00
20013;BME280;10167;42.852;23.042;2023-04-06T08:48:00;94584.72;;;3.26;100.00
20013;BME280;10167;42.852;23.042;2023-04-06T08:50:32;94586.72;;;3.24;100.00
20013;BME280;10167;42.852;23.042;2023-04-06T08:53:01;94577.25;;;3.30;100.00
20013;BME280;10167;42.852;23.042;2023-04-06T08:55:32;94577.47;;;3.28;100.00
20013;BME280;10167;42.852;23.042;2023-04-06T08:58:03;94575.47;;;3.63;100.00
20013;BME280;10167;42.852;23.042;2023-04-06T09:00:33;94581.34;;;3.72;100.00
20013;BME280;10167;42.852;23.042;2023-04-06T09:03:07;94575.25;;;3.98;100.00
20013;BME280;10167;42.852;23.042;2023-04-06T09:05:38;94586.53;;;3.98;100.00
20013;BME280;10167;42.852;23.042;2023-04-06T09:08:08;94581.47;;;4.10;100.00
20013;BME280;10167;42.852;23.042;2023-04-06T09:10:40;94573.81;;;4.15;100.00
20013;BME280;10167;42.852;23.042;2023-04-06T09:13:10;94575.41;;;4.23;100.00
20013;BME280;10167;42.852;23.042;2023-04-06T09:15:39;94572.78;;;4.23;100.00
20013;BME280;10167;42.852;23.042;2023-04-06T09:18:08;94576.25;;;3.97;100.00
20013;BME280;10167;42.852;23.042;2023-04-06T09:20:38;94569.78;;;4.13;100.00
20013;BME280;10167;42.852;23.042;2023-04-06T09:23:17;94575.44;;;4.10;100.00
20013;BME280;10167;42.852;23.042;2023-04-06T09:25:48;94578.25;;;4.15;100.00
20013;BME280;10167;42.852;23.042;2023-04-06T09:28:17;94574.44;;;4.17;100.00
20013;BME280;10167;42.852;23.042;2023-04-06T09:30:48;94571.59;;;4.25;100.00
20013;BME280;10167;42.852;23.042;2023-04-06T09:33:23;94569.97;;;4.18;100.00
20013;BME280;10167;42.852;23.042;2023-04-06T09:35:52;94571.75;;;4.37;100.00
20013;BME280;10167;42.852;23.042;2023-04-06T09:38:22;94576.19;;;4.36;100.00
20013;BME280;10167;42.852;23.042;2023-04-06T09:40:52;94565.09;;;4.34;100.00
20013;BME280;10167;42.852;23.042;2023-04-06T09:43:28;94568.69;;;4.47;100.00
20013;BME280;10167;42.852;23.042;2023-04-06T09:46:00;94570.84;;;4.69;100.00
20013;BME280;10167;42.852;23.042;2023-04-06T09:48:34;94572.34;;;4.90;100.00
20013;BME280;10167;42.852;23.042;2023-04-06T09:51:04;94565.44;;;5.02;100.00
20013;BME280;10167;42.852;23.042;2023-04-06T09:53:37;94560.91;;;5.16;100.00
20013;BME280;10167;42.852;23.042;2023-04-06T09:56:11;94569.19;;;5.44;100.00
20013;BME280;10167;42.852;23.042;2023-04-06T09:58:43;94556.41;;;5.55;100.00
20013;BME280;10167;42.852;23.042;2023-04-06T10:01:15;94566.09;;;5.54;100.00
20013;BME280;10167;42.852;23.042;2023-04-06T10:03:56;94560.91;;;5.47;100.00
20013;BME280;10167;42.852;23.042;2023-04-06T10:06:31;94562.94;;;5.45;100.00
20013;BME280;10167;42.852;23.042;2023-04-06T10:09:04;94561.59;;;5.36;100.00
20013;BME280;10167;42.852;23.042;2023-04-06T10:11:37;94553.13;;;5.34;100.00
20013;BME280;10167;42.852;23.042;2023-04-06T10:14:07;94559.44;;;5.27;100.00
20013;BME280;10167;42.852;23.042;2023-04-06T10:16:37;94558.56;;;5.64;100.00
20013;BME280;10167;42.852;23.042;2023-04-06T10:19:11;94557.38;;;5.85;100.00
20013;BME280;10167;42.852;23.042;2023-04-06T10:21:44;94549.75;;;5.77;100.00
20013;BME280;10167;42.852;23.042;2023-04-06T10:24:15;94543.06;;;5.81;100.00
20013;BME280;10167;42.852;23.042;2023-04-06T10:26:57;94549.88;;;5.89;100.00
20013;BME280;10167;42.852;23.042;2023-04-06T10:29:26;94540.63;;;5.79;100.00
20013;BME280;10167;42.852;23.042;2023-04-06T10:31:55;94538.81;;;5.80;100.00
20013;BME280;10167;42.852;23.042;2023-04-06T10:34:34;94530.25;;;5.66;100.00
20013;BME280;10167;42.852;23.042;2023-04-06T10:37:12;94524.34;;;5.46;100.00
20013;BME280;10167;42.852;23.042;2023-04-06T10:39:49;94534.13;;;5.64;100.00
20013;BME280;10167;42.852;23.042;2023-04-06T10:42:35;94524.94;;;5.73;100.00
20013;BME280;10167;42.852;23.042;2023-04-06T10:45:06;94516.06;;;5.74;100.00
20013;BME280;10167;42.852;23.042;2023-04-06T10:47:39;94521.81;;;5.64;100.00
20013;BME280;10167;42.852;23.042;2023-04-06T10:50:11;94516.69;;;5.69;100.00
20013;BME280;10167;42.852;23.042;2023-04-06T10:52:44;94520.53;;;5.67;100.00
20013;BME280;10167;42.852;23.042;2023-04-06T10:55:15;94507.22;;;6.11;100.00
20013;BME280;10167;42.852;23.042;2023-04-06T10:57:47;94506.50;;;6.41;100.00
20013;BME280;10167;42.852;23.042;2023-04-06T11:00:17;94500.94;;;6.49;100.00
20013;BME280;10167;42.852;23.042;2023-04-06T11:02:47;94502.38;;;6.45;100.00
20013;BME280;10167;42.852;23.042;2023-04-06T11:05:16;94501.03;;;7.02;100.00
20013;BME280;10167;42.852;23.042;2023-04-06T11:07:46;94499.84;;;7.16;96.69
20013;BME280;10167;42.852;23.042;2023-04-06T11:10:21;94504.25;;;7.04;98.55
20013;BME280;10167;42.852;23.042;2023-04-06T11:12:56;94503.00;;;6.29;98.21
20013;BME280;10167;42.852;23.042;2023-04-06T11:15:25;94493.19;;;5.99;100.00
20013;BME280;10167;42.852;23.042;2023-04-06T11:17:54;94492.91;;;6.07;100.00
20013;BME280;10167;42.852;23.042;2023-04-06T11:20:24;94495.44;;;6.32;100.00
20013;BME280;10167;42.852;23.042;2023-04-06T11:22:53;94490.56;;;6.84;100.00
20013;BME280;10167;42.852;23.042;2023-04-06T11:25:22;94490.16;;;7.40;99.11
20013;BME280;10167;42.852;23.042;2023-04-06T11:27:52;94493.41;;;8.12;95.37
20013;BME280;10167;42.852;23.042;2023-04-06T11:30:24;94493.34;;;8.47;93.45
20013;BME280;10167;42.852;23.042;2023-04-06T11:33:00;94493.28;;;8.19;93.37
20013;BME280;10167;42.852;23.042;2023-04-06T11:35:31;94492.38;;;7.90;94.24
20013;BME280;10167;42.852;23.042;2023-04-06T11:38:03;94491.78;;;8.11;93.68
20013;BME280;10167;42.852;23.042;2023-04-06T11:40:32;94489.16;;;7.64;93.56
20013;BME280;10167;42.852;23.042;2023-04-06T11:43:04;94489.09;;;7.29;95.63
20013;BME280;10167;42.852;23.042;2023-04-06T11:45:41;94484.47;;;7.13;96.33
20013;BME280;10167;42.852;23.042;2023-04-06T11:48:18;94481.91;;;6.95;94.52
20013;BME280;10167;42.852;23.042;2023-04-06T11:50:55;94484.47;;;6.72;96.44
20013;BME280;10167;42.852;23.042;2023-04-06T11:53:26;94474.59;;;6.97;95.37
20013;BME280;10167;42.852;23.042;2023-04-06T11:55:58;94479.66;;;6.99;95.04
20013;BME280;10167;42.852;23.042;2023-04-06T11:58:27;94476.50;;;6.90;94.04
20013;BME280;10167;42.852;23.042;2023-04-06T12:01:04;94475.84;;;6.95;97.71
20013;BME280;10167;42.852;23.042;2023-04-06T12:03:33;94470.72;;;7.00;97.86
20013;BME280;10167;42.852;23.042;2023-04-06T12:06:03;94478.00;;;6.86;96.97
20013;BME280;10167;42.852;23.042;2023-04-06T12:08:32;94469.16;;;7.10;97.36
20013;BME280;10167;42.852;23.042;2023-04-06T12:11:03;94464.72;;;7.34;95.16
20013;BME280;10167;42.852;23.042;2023-04-06T12:13:32;94462.66;;;7.48;95.37
20013;BME280;10167;42.852;23.042;2023-04-06T12:16:01;94470.94;;;7.86;96.08
20013;BME280;10167;42.852;23.042;2023-04-06T12:18:32;94466.75;;;8.49;93.51
20013;BME280;10167;42.852;23.042;2023-04-06T12:21:01;94474.81;;;8.19;89.72
20013;BME280;10167;42.852;23.042;2023-04-06T12:23:30;94473.59;;;8.61;90.10
20013;BME280;10167;42.852;23.042;2023-04-06T12:26:00;94471.19;;;8.60;87.58
20013;BME280;10167;42.852;23.042;2023-04-06T12:28:29;94461.44;;;9.34;85.93
20013;BME280;10167;42.852;23.042;2023-04-06T12:30:59;94469.13;;;9.52;86.22
20013;BME280;10167;42.852;23.042;2023-04-06T12:33:28;94464.31;;;9.66;85.42
20013;BME280;10167;42.852;23.042;2023-04-06T12:35:59;94467.53;;;9.51;85.56
20013;BME280;10167;42.852;23.042;2023-04-06T12:38:28;94464.22;;;9.61;84.02
20013;BME280;10167;42.852;23.042;2023-04-06T12:40:57;94464.47;;;10.31;82.79
20013;BME280;10167;42.852;23.042;2023-04-06T12:43:27;94464.09;;;11.42;80.46
20013;BME280;10167;42.852;23.042;2023-04-06T12:45:56;94460.09;;;11.71;79.54
20013;BME280;10167;42.852;23.042;2023-04-06T12:48:25;94463.13;;;12.84;74.87
20013;BME280;10167;42.852;23.042;2023-04-06T12:50:55;94470.44;;;13.19;71.89
20013;BME280;10167;42.852;23.042;2023-04-06T12:53:27;94457.47;;;12.60;72.20
20013;BME280;10167;42.852;23.042;2023-04-06T12:55:57;94460.41;;;12.64;71.71
20013;BME280;10167;42.852;23.042;2023-04-06T12:58:26;94451.69;;;12.79;71.56
20013;BME280;10167;42.852;23.042;2023-04-06T13:00:57;94461.06;;;13.12;69.88
20013;BME280;10167;42.852;23.042;2023-04-06T13:03:30;94454.22;;;12.48;71.60
20013;BME280;10167;42.852;23.042;2023-04-06T13:06:00;94455.41;;;12.78;69.41
20013;BME280;10167;42.852;23.042;2023-04-06T13:08:31;94446.47;;;12.36;71.26
20013;BME280;10167;42.852;23.042;2023-04-06T13:11:00;94444.38;;;11.96;72.47
20013;BME280;10167;42.852;23.042;2023-04-06T13:13:29;94432.22;;;11.05;75.28
20013;BME280;10167;42.852;23.042;2023-04-06T13:16:00;94436.84;;;10.44;77.76